createdAt,value
2018-06-04T00:01:12.618Z,20.00
2018-06-04T00:03:40.882Z,19.90
2018-06-04T00:06:08.999Z,19.80
2018-06-04T00:08:37.224Z,19.90
2018-06-04T00:11:05.328Z,19.70
2018-06-04T00:13:33.551Z,19.80
2018-06-04T00:16:01.807Z,19.80
2018-06-04T00:18:29.932Z,19.80
2018-06-04T00:20:58.103Z,19.70
2018-06-04T00:23:26.327Z,19.60
2018-06-04T00:25:54.569Z,19.50
2018-06-04T00:28:22.802Z,19.50
2018-06-04T00:30:51.033Z,19.50
2018-06-04T00:33:19.114Z,19.50
2018-06-04T00:35:47.355Z,19.40
2018-06-04T00:38:15.499Z,19.30
2018-06-04T00:40:43.606Z,19.30
2018-06-04T00:43:11.817Z,19.30
2018-06-04T00:45:39.993Z,19.30
2018-06-04T00:48:08.124Z,19.30
2018-06-04T00:50:36.612Z,19.30
2018-06-04T00:53:04.864Z,19.30
2018-06-04T00:55:48.807Z,19.30
2018-06-04T00:58:16.938Z,19.30
2018-06-04T01:00:45.098Z,19.20
2018-06-04T01:03:13.263Z,19.20
2018-06-04T01:05:41.357Z,19.20
2018-06-04T01:08:09.510Z,19.10
2018-06-04T01:10:37.682Z,19.10
2018-06-04T01:13:05.855Z,19.10
2018-06-04T01:15:33.956Z,19.10
2018-06-04T01:18:02.109Z,19.00
2018-06-04T01:20:30.344Z,18.90
2018-06-04T01:22:58.533Z,19.00
2018-06-04T01:25:26.741Z,18.90
2018-06-04T01:30:22.980Z,18.80
2018-06-04T01:35:19.129Z,18.70
2018-06-04T01:37:47.295Z,18.80
2018-06-04T01:42:43.541Z,18.80
2018-06-04T01:45:11.685Z,18.80
2018-06-04T01:47:39.836Z,18.90
2018-06-04T01:50:08.001Z,18.90
2018-06-04T01:52:36.052Z,18.80
2018-06-04T01:55:04.272Z,18.80
2018-06-04T01:57:32.525Z,18.70
2018-06-04T02:00:00.720Z,18.70
2018-06-04T02:02:28.887Z,18.70
2018-06-04T02:04:57.029Z,18.60
2018-06-04T02:07:25.173Z,18.60
2018-06-04T02:09:53.449Z,18.60
2018-06-04T02:17:17.775Z,18.50
2018-06-04T02:19:45.911Z,18.50
2018-06-04T02:22:14.074Z,18.50
2018-06-04T02:24:42.191Z,18.50
2018-06-04T02:27:10.310Z,18.50
2018-06-04T02:29:38.489Z,18.40
2018-06-04T02:32:06.650Z,18.40
2018-06-04T02:34:34.787Z,18.30
2018-06-04T02:37:03.007Z,18.30
2018-06-04T02:39:31.161Z,18.30
2018-06-04T02:41:59.451Z,18.30
2018-06-04T02:44:27.699Z,18.30
2018-06-04T02:46:55.855Z,18.30
2018-06-04T02:49:23.958Z,18.40
2018-06-04T02:51:52.118Z,18.50
2018-06-04T02:56:48.396Z,18.50
2018-06-04T02:59:16.580Z,18.40
2018-06-04T03:01:44.696Z,18.30
2018-06-04T03:04:12.848Z,18.40
2018-06-04T03:06:40.977Z,18.30
2018-06-04T03:09:09.125Z,18.30
2018-06-04T03:11:37.313Z,18.20
2018-06-04T03:14:05.878Z,18.20
2018-06-04T03:16:34.054Z,18.20
2018-06-04T03:19:02.224Z,18.20
2018-06-04T03:21:30.348Z,18.10
2018-06-04T03:23:58.499Z,18.10
2018-06-04T03:26:26.658Z,18.00
2018-06-04T03:28:54.757Z,17.90
2018-06-04T03:31:22.874Z,18.00
2018-06-04T03:33:51.028Z,18.00
2018-06-04T03:36:19.147Z,18.00
2018-06-04T03:38:47.354Z,18.00
2018-06-04T03:41:15.669Z,18.00
2018-06-04T03:43:43.809Z,18.00
2018-06-04T03:46:12.027Z,18.00
2018-06-04T03:48:40.173Z,18.00
2018-06-04T03:51:08.432Z,18.00
2018-06-04T03:53:36.504Z,18.00
2018-06-04T03:56:04.640Z,18.00
2018-06-04T04:00:54.379Z,18.00
2018-06-04T04:03:22.509Z,18.10
2018-06-04T04:05:50.611Z,18.00
2018-06-04T04:08:18.732Z,18.00
2018-06-04T04:10:46.856Z,18.00
2018-06-04T04:13:15.020Z,18.10
2018-06-04T04:15:43.208Z,18.10
2018-06-04T04:18:11.423Z,18.00
2018-06-04T04:20:39.658Z,18.00
2018-06-04T04:23:07.852Z,18.00
2018-06-04T04:25:35.928Z,18.10
2018-06-04T04:28:04.141Z,18.20
2018-06-04T04:33:00.354Z,18.10
2018-06-04T04:35:28.744Z,18.10
2018-06-04T04:40:24.894Z,18.20
2018-06-04T04:45:21.084Z,18.20
2018-06-04T04:47:49.231Z,18.20
2018-06-04T04:50:17.437Z,18.20
2018-06-04T04:52:45.611Z,18.20
2018-06-04T04:55:13.744Z,18.30
2018-06-04T04:57:44.095Z,18.40
2018-06-04T05:00:22.452Z,18.40
2018-06-04T05:02:50.764Z,18.50
2018-06-04T05:05:18.977Z,18.70
2018-06-04T05:07:47.248Z,18.70
2018-06-04T05:10:15.419Z,18.80
2018-06-04T05:12:43.498Z,18.80
2018-06-04T05:15:11.617Z,18.90
2018-06-04T05:17:39.792Z,18.90
2018-06-04T05:20:07.959Z,19.00
2018-06-04T05:22:36.148Z,19.00
2018-06-04T05:25:04.276Z,19.00
2018-06-04T05:27:32.432Z,19.10
2018-06-04T05:30:00.567Z,19.20
2018-06-04T05:32:28.766Z,19.20
2018-06-04T05:34:57.116Z,19.20
2018-06-04T05:37:25.351Z,19.40
2018-06-04T05:39:53.468Z,19.50
2018-06-04T05:42:21.794Z,19.50
2018-06-04T05:44:49.873Z,19.60
2018-06-04T05:47:18.043Z,19.70
2018-06-04T05:52:14.441Z,19.90
2018-06-04T05:54:42.613Z,20.00
2018-06-04T05:57:10.745Z,20.10
2018-06-04T05:59:40.387Z,20.10
2018-06-04T06:02:08.552Z,20.20
2018-06-04T06:04:36.704Z,20.20
2018-06-04T06:07:04.887Z,20.30
2018-06-04T06:09:33.102Z,20.30
2018-06-04T06:12:01.327Z,20.30
2018-06-04T06:14:29.541Z,20.30
2018-06-04T06:16:57.636Z,20.40
2018-06-04T06:19:25.780Z,20.50
2018-06-04T06:21:53.926Z,20.60
2018-06-04T06:24:22.045Z,20.60
2018-06-04T06:26:50.280Z,20.60
2018-06-04T06:29:18.399Z,20.70
2018-06-04T06:31:46.595Z,20.80
2018-06-04T06:34:14.757Z,20.80
2018-06-04T06:36:42.926Z,20.80
2018-06-04T06:39:12.080Z,20.80
2018-06-04T06:41:40.293Z,20.90
2018-06-04T06:44:08.937Z,20.90
2018-06-04T06:46:37.070Z,21.00
2018-06-04T06:49:05.302Z,21.00
2018-06-04T06:51:33.532Z,21.00
2018-06-04T06:56:29.862Z,21.10
2018-06-04T06:58:57.992Z,21.20
2018-06-04T07:01:26.140Z,21.30
2018-06-04T07:03:54.310Z,21.30
2018-06-04T07:06:22.489Z,21.40
2018-06-04T07:08:50.769Z,21.40
2018-06-04T07:13:46.984Z,21.60
2018-06-04T07:16:15.170Z,21.60
2018-06-04T07:18:43.442Z,21.70
2018-06-04T07:21:11.620Z,21.70
2018-06-04T07:23:39.791Z,21.70
2018-06-04T07:26:07.907Z,21.80
2018-06-04T07:28:36.125Z,21.90
2018-06-04T07:31:04.258Z,22.10
2018-06-04T07:36:11.028Z,22.30
2018-06-04T07:38:40.007Z,22.40
2018-06-04T07:41:08.173Z,22.50
2018-06-04T07:43:36.320Z,22.50
2018-06-04T07:46:05.045Z,22.60
2018-06-04T07:48:33.210Z,22.70
2018-06-04T07:51:01.379Z,22.60
2018-06-04T07:53:29.524Z,22.70
2018-06-04T07:55:57.752Z,22.80
2018-06-04T07:58:25.971Z,22.80
2018-06-04T08:00:54.099Z,22.80
2018-06-04T08:03:22.259Z,23.00
2018-06-04T08:05:50.488Z,22.80
2018-06-04T08:08:18.659Z,23.00
2018-06-04T08:10:46.882Z,23.20
2018-06-04T08:13:14.944Z,23.20
2018-06-04T08:15:43.093Z,23.30
2018-06-04T08:18:11.196Z,23.40
2018-06-04T08:20:39.328Z,23.40
2018-06-04T08:23:07.479Z,23.50
2018-06-04T08:25:35.581Z,23.70
2018-06-04T08:28:03.731Z,23.80
2018-06-04T08:30:31.825Z,23.90
2018-06-04T08:32:59.912Z,24.00
2018-06-04T08:35:28.219Z,24.00
2018-06-04T08:37:56.373Z,24.00
2018-06-04T08:40:24.493Z,24.00
2018-06-04T08:42:52.630Z,24.00
2018-06-04T08:47:48.847Z,24.40
2018-06-04T08:50:17.028Z,24.40
2018-06-04T08:52:45.137Z,24.40
2018-06-04T08:55:13.346Z,24.50
2018-06-04T08:57:41.511Z,24.60
2018-06-04T09:00:09.663Z,24.60
2018-06-04T09:02:37.845Z,24.70
2018-06-04T09:05:05.962Z,24.70
2018-06-04T09:07:34.128Z,24.70
2018-06-04T09:10:02.273Z,24.80
2018-06-04T09:12:30.412Z,24.80
2018-06-04T09:14:58.546Z,24.80
2018-06-04T09:17:26.689Z,24.90
2018-06-04T09:19:54.871Z,24.70
2018-06-04T09:22:23.111Z,24.90
2018-06-04T09:24:51.323Z,25.00
2018-06-04T09:27:19.468Z,24.90
2018-06-04T09:29:47.642Z,24.90
2018-06-04T09:32:15.828Z,25.10
2018-06-04T09:34:43.992Z,25.20
2018-06-04T09:37:12.237Z,25.50
2018-06-04T09:39:40.436Z,25.70
2018-06-04T09:42:08.620Z,25.80
2018-06-04T09:44:36.801Z,25.80
2018-06-04T09:47:04.944Z,25.80
2018-06-04T09:49:33.245Z,25.90
2018-06-04T09:52:01.383Z,25.90
2018-06-04T09:54:29.512Z,25.90
2018-06-04T09:56:57.605Z,25.90
2018-06-04T10:04:25.534Z,26.20
2018-06-04T10:06:53.700Z,26.20
2018-06-04T10:09:21.865Z,26.20
2018-06-04T10:11:49.991Z,26.20
2018-06-04T10:14:18.120Z,26.30
2018-06-04T10:16:46.324Z,26.30
2018-06-04T10:19:14.640Z,26.40
2018-06-04T10:24:10.883Z,26.60
2018-06-04T10:26:38.996Z,26.70
2018-06-04T10:29:07.151Z,26.80
2018-06-04T10:31:35.296Z,26.90
2018-06-04T10:34:03.405Z,27.00
2018-06-04T10:36:31.571Z,27.00
2018-06-04T10:38:59.696Z,27.10
2018-06-04T10:41:27.850Z,27.20
2018-06-04T10:43:55.988Z,26.90
2018-06-04T10:46:24.115Z,26.60
2018-06-04T10:48:52.229Z,26.50
2018-06-04T10:51:20.424Z,26.50
2018-06-04T10:53:48.569Z,26.40
2018-06-04T10:56:17.251Z,26.50
2018-06-04T10:58:45.482Z,26.50
2018-06-04T11:03:41.809Z,26.50
2018-06-04T11:06:09.936Z,26.60
2018-06-04T11:08:38.085Z,26.70
2018-06-04T11:11:06.439Z,26.70
2018-06-04T11:13:34.605Z,26.70
2018-06-04T11:16:02.715Z,26.80
2018-06-04T11:18:30.899Z,26.90
2018-06-04T11:20:59.043Z,26.90
2018-06-04T11:25:56.234Z,27.00
2018-06-04T11:28:24.291Z,27.20
2018-06-04T11:33:20.544Z,27.50
2018-06-04T11:35:48.672Z,27.60
2018-06-04T11:38:16.853Z,27.60
2018-06-04T11:40:45.017Z,27.60
2018-06-04T11:43:13.132Z,27.70
2018-06-04T11:45:41.276Z,27.70
2018-06-04T11:50:37.507Z,27.80
2018-06-04T11:53:05.679Z,27.80
2018-06-04T11:55:33.815Z,28.00
2018-06-04T11:58:01.920Z,28.00
2018-06-04T12:00:30.099Z,28.00
2018-06-04T12:02:58.259Z,28.10
2018-06-04T12:05:27.159Z,28.10
2018-06-04T12:07:55.323Z,27.90
2018-06-04T12:10:23.463Z,27.90
2018-06-04T12:12:51.613Z,27.80
2018-06-04T12:15:19.770Z,27.90
2018-06-04T12:17:47.958Z,27.90
2018-06-04T12:20:16.073Z,27.80
2018-06-04T12:22:44.243Z,27.80
2018-06-04T12:25:12.352Z,27.70
2018-06-04T12:30:08.655Z,27.70
2018-06-04T12:32:36.811Z,27.60
2018-06-04T12:35:05.048Z,27.50
2018-06-04T12:37:33.259Z,27.60
2018-06-04T12:40:01.433Z,27.70
2018-06-04T12:42:29.667Z,28.00
2018-06-04T12:47:25.934Z,28.30
2018-06-04T12:52:22.200Z,28.10
2018-06-04T12:54:50.314Z,28.10
2018-06-04T12:57:18.487Z,28.10
2018-06-04T12:59:46.603Z,28.20
2018-06-04T13:02:14.695Z,28.20
2018-06-04T13:04:42.915Z,28.10
2018-06-04T13:07:10.984Z,28.30
2018-06-04T13:09:39.189Z,28.40
2018-06-04T13:12:07.338Z,28.60
2018-06-04T13:14:35.493Z,28.60
2018-06-04T13:19:31.796Z,28.20
2018-06-04T13:21:59.927Z,28.30
2018-06-04T13:24:28.082Z,28.40
2018-06-04T13:29:24.203Z,28.40
2018-06-04T13:31:52.401Z,28.60
2018-06-04T13:36:48.594Z,28.80
2018-06-04T13:39:16.751Z,28.70
2018-06-04T13:41:44.946Z,28.50
2018-06-04T13:44:13.095Z,28.30
2018-06-04T13:46:41.584Z,28.30
2018-06-04T13:49:09.748Z,28.20
2018-06-04T13:51:38.018Z,28.20
2018-06-04T13:54:06.289Z,28.30
2018-06-04T13:56:34.564Z,28.50
2018-06-04T13:59:02.864Z,28.70
2018-06-04T14:01:31.059Z,28.60
2018-06-04T14:03:59.228Z,28.50
2018-06-04T14:06:27.338Z,28.50
2018-06-04T14:08:55.451Z,28.60
2018-06-04T14:11:23.619Z,28.60
2018-06-04T14:13:51.815Z,28.70
2018-06-04T14:16:19.979Z,28.70
2018-06-04T14:18:48.155Z,28.70
2018-06-04T14:21:16.284Z,28.80
2018-06-04T14:23:44.509Z,28.90
2018-06-04T14:26:12.653Z,28.90
2018-06-04T14:28:40.763Z,29.00
2018-06-04T14:31:08.935Z,29.10
2018-06-04T14:33:37.308Z,29.20
2018-06-04T14:36:05.492Z,29.20
2018-06-04T14:38:33.621Z,29.30
2018-06-04T14:41:01.739Z,29.40
2018-06-04T14:45:57.957Z,29.10
2018-06-04T14:48:26.246Z,29.10
2018-06-04T14:53:22.420Z,29.20
2018-06-04T14:55:50.609Z,29.30
2018-06-04T14:58:18.732Z,29.40
2018-06-04T15:00:46.898Z,29.50
2018-06-04T15:03:14.992Z,29.70
2018-06-04T15:05:43.115Z,29.70
2018-06-04T15:08:14.113Z,29.70
2018-06-04T15:10:42.340Z,29.70
2018-06-04T15:13:10.439Z,29.40
2018-06-04T15:15:38.591Z,29.40
2018-06-04T15:18:06.788Z,29.50
2018-06-04T15:23:03.000Z,29.30
2018-06-04T15:25:31.172Z,29.40
2018-06-04T15:27:59.324Z,29.20
2018-06-04T15:30:27.446Z,29.20
2018-06-04T15:32:55.626Z,29.40
2018-06-04T15:35:23.796Z,29.40
2018-06-04T15:37:52.102Z,29.40
2018-06-04T15:40:20.230Z,29.50
2018-06-04T15:42:48.395Z,29.40
2018-06-04T15:45:16.531Z,29.40
2018-06-04T15:47:44.734Z,29.40
2018-06-04T15:50:12.923Z,29.50
2018-06-04T15:52:41.092Z,29.30
2018-06-04T15:57:37.319Z,29.00
2018-06-04T16:00:05.596Z,29.00
2018-06-04T16:05:01.892Z,29.10
2018-06-04T16:07:30.063Z,29.30
2018-06-04T16:09:58.273Z,29.20
2018-06-04T16:12:26.476Z,29.20
2018-06-04T16:17:22.697Z,29.20
2018-06-04T16:19:50.836Z,29.10
2018-06-04T16:22:19.043Z,29.10
2018-06-04T16:24:47.228Z,29.10
2018-06-04T16:27:15.431Z,29.10
2018-06-04T16:29:43.579Z,29.00
2018-06-04T16:34:39.964Z,29.00
2018-06-04T16:37:08.163Z,28.90
2018-06-04T16:39:36.400Z,28.70
2018-06-04T16:42:04.736Z,28.50
2018-06-04T16:44:32.928Z,28.50
2018-06-04T16:47:01.092Z,28.40
2018-06-04T16:49:29.355Z,28.40
2018-06-04T16:52:00.017Z,28.40
2018-06-04T16:54:28.135Z,28.50
2018-06-04T16:56:56.262Z,28.50
2018-06-04T16:59:24.544Z,28.40
2018-06-04T17:01:52.636Z,28.40
2018-06-04T17:04:20.807Z,28.50
2018-06-04T17:06:49.085Z,28.40
2018-06-04T17:09:17.263Z,28.40
2018-06-04T17:11:45.504Z,28.40
2018-06-04T17:14:13.633Z,28.30
2018-06-04T17:16:41.825Z,28.40
2018-06-04T17:19:09.994Z,28.40
2018-06-04T17:21:38.174Z,28.40
2018-06-04T17:24:06.440Z,28.30
2018-06-04T17:26:34.585Z,28.20
2018-06-04T17:29:02.748Z,28.20
2018-06-04T17:31:30.828Z,28.20
2018-06-04T17:33:58.994Z,28.20
2018-06-04T17:36:27.335Z,28.10
2018-06-04T17:38:55.497Z,28.20
2018-06-04T17:41:23.697Z,28.10
2018-06-04T17:43:51.847Z,28.20
2018-06-04T17:46:20.077Z,28.10
2018-06-04T17:48:48.292Z,28.10
2018-06-04T17:51:16.476Z,28.00
2018-06-04T17:53:44.669Z,27.90
2018-06-04T17:56:12.832Z,27.90
2018-06-04T17:58:40.991Z,27.90
2018-06-04T18:01:09.476Z,27.90
2018-06-04T18:03:37.835Z,27.90
2018-06-04T18:06:06.169Z,27.90
2018-06-04T18:08:34.294Z,27.80
2018-06-04T18:11:02.510Z,27.70
2018-06-04T18:13:30.896Z,27.70
2018-06-04T18:15:59.105Z,27.60
2018-06-04T18:18:27.711Z,27.60
2018-06-04T18:20:56.013Z,27.60
2018-06-04T18:23:24.218Z,27.50
2018-06-04T18:25:52.524Z,27.50
2018-06-04T18:28:20.779Z,27.50
2018-06-04T18:30:49.049Z,27.50
2018-06-04T18:33:17.342Z,27.50
2018-06-04T18:35:45.617Z,27.40
2018-06-04T18:38:13.936Z,27.40
2018-06-04T18:40:42.228Z,27.40
2018-06-04T18:43:10.509Z,27.30
2018-06-04T18:48:06.960Z,27.30
2018-06-04T18:50:35.208Z,27.20
2018-06-04T18:53:03.423Z,27.10
2018-06-04T18:55:31.692Z,27.10
2018-06-04T19:00:28.155Z,27.00
2018-06-04T19:05:24.582Z,26.90
2018-06-04T19:07:52.826Z,26.90
2018-06-04T19:10:21.058Z,26.80
2018-06-04T19:12:49.280Z,26.80
2018-06-04T19:15:17.604Z,26.80
2018-06-04T19:17:46.442Z,26.70
2018-06-04T19:20:14.877Z,26.70
2018-06-04T19:22:43.141Z,26.60
2018-06-04T19:25:11.467Z,26.60
2018-06-04T19:27:39.802Z,26.50
2018-06-04T19:30:08.115Z,26.50
2018-06-04T19:32:36.408Z,26.50
2018-06-04T19:35:05.365Z,26.50
2018-06-04T19:37:34.273Z,26.50
2018-06-04T19:40:02.854Z,26.50
2018-06-04T19:42:31.066Z,26.40
2018-06-04T19:44:59.332Z,26.30
2018-06-04T19:47:27.582Z,26.20
2018-06-04T19:49:56.173Z,26.10
2018-06-04T19:57:20.825Z,26.00
2018-06-04T20:02:17.298Z,26.00
2018-06-04T20:04:45.572Z,26.00
2018-06-04T20:07:13.845Z,25.90
2018-06-04T20:09:42.056Z,25.80
2018-06-04T20:12:10.341Z,25.60
2018-06-04T20:14:38.639Z,25.40
2018-06-04T20:17:07.006Z,25.20
2018-06-04T20:19:35.360Z,25.20
2018-06-04T20:22:03.571Z,25.20
2018-06-04T20:27:00.340Z,25.10
2018-06-04T20:29:33.501Z,25.00
2018-06-04T20:32:04.169Z,25.00
2018-06-04T20:34:33.068Z,25.00
2018-06-04T20:39:34.998Z,24.80
2018-06-04T20:42:03.570Z,24.70
2018-06-04T20:44:32.002Z,24.60
2018-06-04T20:47:00.446Z,24.60
2018-06-04T20:49:28.760Z,24.50
2018-06-04T20:51:57.120Z,24.40
2018-06-04T20:54:25.325Z,24.30
2018-06-04T20:56:53.555Z,24.20
2018-06-04T20:59:21.796Z,24.10
2018-06-04T21:01:50.048Z,24.00
2018-06-04T21:04:18.370Z,23.90
2018-06-04T21:06:46.637Z,23.90
2018-06-04T21:09:15.013Z,23.90
2018-06-04T21:11:43.366Z,24.00
2018-06-04T21:14:11.576Z,24.00
2018-06-04T21:16:42.777Z,23.80
2018-06-04T21:19:11.067Z,23.80
2018-06-04T21:21:39.408Z,23.70
2018-06-04T21:24:07.692Z,23.60
2018-06-04T21:26:36.018Z,23.60
2018-06-04T21:29:04.494Z,23.50
2018-06-04T21:36:29.151Z,23.30
2018-06-04T21:38:57.420Z,23.30
2018-06-04T21:41:25.687Z,23.20
2018-06-04T21:43:53.973Z,23.20
2018-06-04T21:46:22.158Z,23.10
2018-06-04T21:48:50.390Z,23.10
2018-06-04T21:53:46.766Z,23.00
2018-06-04T21:56:15.179Z,22.90
2018-06-04T21:58:43.400Z,23.00
2018-06-04T22:01:11.651Z,23.00
2018-06-04T22:03:39.973Z,23.00
2018-06-04T22:06:08.249Z,22.90
2018-06-04T22:08:36.411Z,22.90
2018-06-04T22:11:04.680Z,22.80
2018-06-04T22:13:33.015Z,22.70
2018-06-04T22:16:01.212Z,22.60
2018-06-04T22:18:29.354Z,22.60
2018-06-04T22:20:57.576Z,22.60
2018-06-04T22:23:25.750Z,22.60
2018-06-04T22:25:53.916Z,22.60
2018-06-04T22:28:22.011Z,22.60
2018-06-04T22:30:50.154Z,22.50
2018-06-04T22:33:18.298Z,22.40
2018-06-04T22:35:46.548Z,22.30
2018-06-04T22:38:14.837Z,22.30
2018-06-04T22:43:11.053Z,22.20
2018-06-04T22:45:39.175Z,22.20
2018-06-04T22:48:07.299Z,22.10
2018-06-04T22:50:35.469Z,22.10
2018-06-04T22:53:03.621Z,22.00
2018-06-04T22:55:31.793Z,21.90
2018-06-04T22:57:59.996Z,21.70
2018-06-04T23:00:34.464Z,21.70
2018-06-04T23:05:30.706Z,21.80
2018-06-04T23:07:58.853Z,21.90
2018-06-04T23:10:26.943Z,21.80
2018-06-04T23:15:23.219Z,21.70
2018-06-04T23:17:51.380Z,21.70
2018-06-04T23:20:19.517Z,21.70
2018-06-04T23:22:47.649Z,21.70
2018-06-04T23:25:15.835Z,21.70
2018-06-04T23:27:43.958Z,21.60
2018-06-04T23:30:12.137Z,21.60
2018-06-04T23:32:40.273Z,21.60
2018-06-04T23:35:08.549Z,21.50
2018-06-04T23:37:36.710Z,21.30
2018-06-04T23:40:05.253Z,21.40
2018-06-04T23:42:33.404Z,21.40
2018-06-04T23:45:01.578Z,21.30
2018-06-04T23:47:29.766Z,21.30
2018-06-04T23:49:57.865Z,21.30
2018-06-04T23:52:25.985Z,21.30
2018-06-04T23:54:54.103Z,21.30
2018-06-04T23:57:22.202Z,21.20
2018-06-04T23:59:50.333Z,21.10
